Time;durP1;ratioP1;P1;durP2;ratioP2;P2;SDS_P1;SDS_P2;PMS_P1;PMS_P2;Temp;Humidity;BMP_temperature;BMP_pressure;BME280_temperature;BME280_humidity;BME280_pressure;Samples;Min_cycle;Max_cycle;Signal;HPM_P1;HPM_P2
2021/10/10 00:00:31;;;;;;;48.53;23.55;;;;;;;2.43;60.16;99847.63;4953512;29;20476;-83
2021/10/10 00:02:57;;;;;;;57.55;25.92;;;;;;;2.42;60.38;99845.13;4954050;29;20031;-83
2021/10/10 00:05:22;;;;;;;52.17;24.75;;;;;;;2.40;59.99;99850.75;4953873;29;20031;-83
2021/10/10 00:07:48;;;;;;;46.78;22.25;;;;;;;2.33;60.38;99850.72;4953922;29;20035;-82
2021/10/10 00:10:14;;;;;;;49.88;22.45;;;;;;;2.27;60.32;99856.16;4952565;29;20484;-82
2021/10/10 00:12:42;;;;;;;58.03;25.90;;;;;;;2.22;60.54;99857.59;4954073;29;20082;-83
2021/10/10 00:15:10;;;;;;;51.42;23.45;;;;;;;2.19;60.48;99855.31;4953819;29;20110;-82
2021/10/10 00:17:35;;;;;;;62.25;27.45;;;;;;;2.17;60.66;99857.38;4954035;29;20037;-83
2021/10/10 00:20:01;;;;;;;57.30;26.45;;;;;;;2.21;60.52;99855.13;4954049;29;20039;-82
2021/10/10 00:22:27;;;;;;;60.08;27.08;;;;;;;2.21;60.82;99853.22;4954415;29;20456;-83
2021/10/10 00:24:52;;;;;;;68.13;31.45;;;;;;;2.21;60.33;99850.53;4952801;29;20039;-83
2021/10/10 00:27:18;;;;;;;57.65;27.50;;;;;;;2.26;60.48;99849.06;4953701;29;20075;-82
2021/10/10 00:29:43;;;;;;;59.28;27.90;;;;;;;2.28;60.65;99853.22;4953919;29;20030;-82
2021/10/10 00:32:09;;;;;;;55.83;28.23;;;;;;;2.29;61.10;99849.47;4953774;29;20456;-82
2021/10/10 00:34:34;;;;;;;55.05;25.23;;;;;;;2.27;60.94;99851.56;4953197;29;20038;-82
2021/10/10 00:37:00;;;;;;;55.05;25.40;;;;;;;2.21;60.60;99845.09;4952300;29;20027;-82
2021/10/10 00:39:25;;;;;;;57.70;23.77;;;;;;;2.16;60.71;99850.31;4951921;29;20050;-83
2021/10/10 00:41:50;;;;;;;62.65;24.95;;;;;;;2.10;60.50;99853.00;4953813;29;20027;-82
2021/10/10 00:44:16;;;;;;;65.65;24.92;;;;;;;2.03;61.27;99844.91;4933898;29;20043;-82
2021/10/10 00:46:41;;;;;;;74.15;27.92;;;;;;;1.98;61.38;99844.69;4952586;29;20785;-83
2021/10/10 00:49:07;;;;;;;65.88;26.42;;;;;;;1.96;61.32;99850.28;4951843;28;20499;-84
2021/10/10 00:51:37;;;;;;;64.07;27.40;;;;;;;1.95;61.28;99851.31;4952800;29;20399;-79
2021/10/10 00:54:03;;;;;;;;;;;;;;;1.96;61.34;99849.47;4951966;29;20031;-81
2021/10/10 00:56:31;;;;;;;52.90;24.80;;;;;;;1.93;61.35;99840.72;4937411;29;19918;-75
2021/10/10 00:58:57;;;;;;;57.05;24.17;;;;;;;1.89;61.11;99842.16;4951307;29;20144;-79
2021/10/10 01:01:23;;;;;;;56.22;25.80;;;;;;;1.87;61.42;99848.78;4953313;29;20038;-77
2021/10/10 01:03:49;;;;;;;58.83;25.90;;;;;;;1.77;61.40;99847.34;4954270;29;20027;-83
2021/10/10 01:06:16;;;;;;;58.80;25.77;;;;;;;1.74;61.15;99839.63;4953614;29;20035;-81
2021/10/10 01:08:41;;;;;;;68.20;27.58;;;;;;;1.71;61.95;99833.78;4951497;29;20027;-81
2021/10/10 01:11:07;;;;;;;57.95;25.77;;;;;;;1.66;61.71;99837.09;4951406;29;20047;-80
2021/10/10 01:13:33;;;;;;;70.90;27.80;;;;;;;1.63;61.58;99837.50;4951840;29;20027;-81
2021/10/10 01:15:58;;;;;;;68.93;28.08;;;;;;;1.59;61.79;99842.50;4934117;29;20033;-81
2021/10/10 01:18:25;;;;;;;64.97;25.80;;;;;;;1.58;61.18;99840.84;4953756;29;20027;-81
2021/10/10 01:20:55;;;;;;;67.43;27.00;;;;;;;1.58;61.91;99838.13;4951850;29;20023;-80
2021/10/10 01:23:21;;;;;;;63.65;26.90;;;;;;;1.57;61.92;99838.31;4950705;29;20400;-81
2021/10/10 01:25:47;;;;;;;66.90;27.77;;;;;;;1.54;61.52;99827.91;4952937;29;20024;-80
2021/10/10 01:28:13;;;;;;;67.63;30.42;;;;;;;1.53;61.89;99831.63;4952904;29;20571;-80
2021/10/10 01:30:38;;;;;;;69.40;29.20;;;;;;;1.51;61.58;99829.16;4951304;29;20508;-80
2021/10/10 01:33:09;;;;;;;62.10;29.02;;;;;;;1.50;62.16;99819.38;4952046;29;20106;-80
2021/10/10 01:35:35;;;;;;;;;;;;;;;1.52;61.36;99813.75;4952629;29;20029;-81
2021/10/10 01:38:00;;;;;;;70.88;31.52;;;;;;;1.51;61.97;99817.50;4951267;29;19922;-81
2021/10/10 01:40:26;;;;;;;72.10;35.15;;;;;;;1.51;61.96;99812.94;4952346;29;20062;-82
2021/10/10 01:42:51;;;;;;;80.28;38.22;;;;;;;1.49;61.74;99815.81;4951860;29;20032;-82
2021/10/10 01:45:20;;;;;;;72.40;37.58;;;;;;;1.50;62.39;99811.25;4934738;29;20023;-82
2021/10/10 01:47:45;;;;;;;62.65;32.72;;;;;;;1.46;62.36;99815.41;4935123;29;20461;-82
2021/10/10 01:50:11;;;;;;;57.05;28.13;;;;;;;1.43;61.83;99819.34;4952385;29;20110;-82
2021/10/10 01:52:40;;;;;;;52.70;25.13;;;;;;;1.38;62.15;99813.72;4951312;29;20023;-81
2021/10/10 01:55:06;;;;;;;55.03;24.83;;;;;;;1.34;61.77;99807.06;4953019;29;20116;-82
2021/10/10 01:57:31;;;;;;;51.95;24.73;;;;;;;1.30;61.85;99814.72;4953175;29;20035;-82
2021/10/10 01:59:57;;;;;;;54.88;26.08;;;;;;;1.27;62.40;99808.91;4952803;29;20111;-81
2021/10/10 02:02:22;;;;;;;51.63;25.35;;;;;;;1.23;62.46;99813.03;4953699;29;20027;-81
2021/10/10 02:04:47;;;;;;;52.83;23.17;;;;;;;1.19;62.50;99808.03;4954388;29;20039;-81
2021/10/10 02:07:13;;;;;;;45.33;22.73;;;;;;;1.17;62.39;99812.78;4952262;29;20027;-81
2021/10/10 02:09:41;;;;;;;54.67;24.40;;;;;;;1.16;62.38;99810.31;4952385;28;20491;-81
2021/10/10 02:12:07;;;;;;;55.63;24.60;;;;;;;1.15;62.09;99814.03;4953108;29;20392;-81
2021/10/10 02:14:34;;;;;;;53.50;24.58;;;;;;;1.15;62.34;99804.06;4952751;29;20023;-81
2021/10/10 02:16:59;;;;;;;57.08;26.23;;;;;;;1.22;62.70;99811.38;4952717;29;20404;-81
2021/10/10 02:19:25;;;;;;;42.78;21.50;;;;;;;1.21;63.12;99807.00;4951787;29;20530;-80
2021/10/10 02:21:50;;;;;;;47.05;23.40;;;;;;;1.15;62.46;99806.75;4952345;29;20086;-81
2021/10/10 02:24:16;;;;;;;51.80;24.80;;;;;;;1.12;62.38;99803.63;4952327;29;20455;-81
2021/10/10 02:26:42;;;;;;;55.33;25.52;;;;;;;1.07;62.42;99801.53;4952383;29;21102;-81
2021/10/10 02:29:08;;;;;;;49.58;24.13;;;;;;;1.01;62.88;99802.34;4952405;29;20042;-80
2021/10/10 02:31:34;;;;;;;57.80;26.92;;;;;;;0.97;62.48;99807.31;4950494;29;20035;-81
2021/10/10 02:34:00;;;;;;;65.40;27.88;;;;;;;0.94;62.61;99807.69;4950691;29;20027;-80
2021/10/10 02:36:25;;;;;;;60.10;27.92;;;;;;;0.96;63.18;99800.22;4943223;29;20029;-80
2021/10/10 02:38:50;;;;;;;57.55;27.17;;;;;;;0.98;63.54;99792.75;4950846;29;20479;-81
2021/10/10 02:41:16;;;;;;;72.85;31.90;;;;;;;0.96;63.27;99789.41;4950037;29;20046;-81
2021/10/10 02:43:41;;;;;;;98.82;38.38;;;;;;;0.96;63.12;99792.13;4951218;29;20059;-81
2021/10/10 02:46:07;;;;;;;97.30;37.72;;;;;;;0.95;63.45;99793.16;4950992;29;20042;-81
2021/10/10 02:48:32;;;;;;;112.72;40.30;;;;;;;0.94;63.35;99791.50;4947804;29;20031;-81
2021/10/10 02:50:58;;;;;;;143.73;47.30;;;;;;;0.96;62.82;99792.13;4949544;29;20038;-81
2021/10/10 02:53:23;;;;;;;120.55;44.97;;;;;;;0.97;63.41;99790.28;4951390;29;21357;-81
2021/10/10 02:55:49;;;;;;;115.65;42.45;;;;;;;0.99;63.35;99780.09;4933960;29;20027;-81
2021/10/10 02:58:14;;;;;;;95.18;38.85;;;;;;;0.99;63.04;99780.09;4951789;29;20039;-81
2021/10/10 03:00:40;;;;;;;90.28;37.30;;;;;;;0.96;63.02;99777.78;4950020;29;20038;-81
2021/10/10 03:03:06;;;;;;;87.60;37.72;;;;;;;0.94;63.13;99777.16;4951273;29;20027;-82
2021/10/10 03:05:31;;;;;;;91.78;38.20;;;;;;;0.94;63.21;99779.88;4949865;29;20763;-81
2021/10/10 03:07:56;;;;;;;88.85;34.88;;;;;;;0.93;62.87;99784.41;4950419;29;20030;-82
2021/10/10 03:10:22;;;;;;;65.57;30.25;;;;;;;0.88;62.94;99776.94;4951657;29;20058;-82
2021/10/10 03:12:49;;;;;;;75.72;33.63;;;;;;;0.86;62.99;99778.13;4950049;29;20047;-82
2021/10/10 03:15:14;;;;;;;69.57;30.25;;;;;;;0.84;63.18;99782.91;4951632;29;20038;-81
2021/10/10 03:17:39;;;;;;;74.35;30.75;;;;;;;0.81;63.54;99783.34;4951389;29;20078;-82
2021/10/10 03:20:06;;;;;;;65.35;29.30;;;;;;;0.80;63.06;99776.25;4933376;29;20023;-81
2021/10/10 03:22:31;;;;;;;63.90;28.90;;;;;;;0.81;63.27;99781.44;4949296;28;20039;-82
2021/10/10 03:24:57;;;;;;;58.00;27.52;;;;;;;0.80;63.22;99776.25;4951794;29;20078;-81
2021/10/10 03:27:25;;;;;;;62.25;28.88;;;;;;;0.82;63.47;99776.88;4953326;29;20024;-81
2021/10/10 03:29:54;;;;;;;56.10;28.13;;;;;;;0.81;63.35;99770.66;4953091;29;20023;-81
2021/10/10 03:32:21;;;;;;;56.08;26.52;;;;;;;0.78;63.07;99768.34;4954196;29;20023;-81
2021/10/10 03:34:46;;;;;;;56.17;26.75;;;;;;;0.75;63.40;99771.44;4937338;29;20114;-81
2021/10/10 03:37:12;;;;;;;54.38;25.05;;;;;;;0.76;63.53;99764.19;4954626;29;20034;-81
2021/10/10 03:39:37;;;;;;;55.50;25.00;;;;;;;0.74;63.56;99769.78;4954448;29;20027;-81
2021/10/10 03:42:03;;;;;;;50.97;25.45;;;;;;;0.74;63.12;99767.06;4937625;29;20034;-81
2021/10/10 03:44:28;;;;;;;56.33;26.05;;;;;;;0.74;63.43;99765.22;4953421;29;20027;-81
2021/10/10 03:46:54;;;;;;;51.38;24.58;;;;;;;0.74;63.49;99769.78;4954228;29;20035;-81
2021/10/10 03:49:19;;;;;;;52.22;25.65;;;;;;;0.74;63.66;99761.69;4952366;29;20456;-81
2021/10/10 03:51:45;;;;;;;48.47;23.48;;;;;;;0.74;63.66;99750.88;4951053;29;20031;-81
2021/10/10 03:56:48;;;;;;;43.45;21.77;;;;;;;0.73;63.99;99757.31;4950841;29;20579;-81
2021/10/10 03:59:13;;;;;;;44.80;21.65;;;;;;;0.71;63.37;99749.41;4950518;29;20469;-81
2021/10/10 04:01:40;;;;;;;41.67;21.73;;;;;;;0.70;63.58;99752.31;4932313;29;20035;-81
2021/10/10 04:04:06;;;;;;;39.38;20.33;;;;;;;0.66;63.27;99751.03;4948296;29;20035;-81
2021/10/10 04:06:31;;;;;;;40.13;21.52;;;;;;;0.62;63.42;99749.75;4949633;29;20103;-81
2021/10/10 04:08:57;;;;;;;45.25;21.52;;;;;;;0.60;63.92;99739.16;4950348;29;20431;-81
2021/10/10 04:11:22;;;;;;;43.33;20.20;;;;;;;0.57;63.56;99740.41;4950717;29;20383;-81
2021/10/10 04:13:47;;;;;;;42.58;20.65;;;;;;;0.52;63.79;99740.16;4951008;29;20483;-81
2021/10/10 04:16:13;;;;;;;40.47;20.45;;;;;;;0.48;63.75;99738.06;4951075;29;20031;-81
2021/10/10 04:18:38;;;;;;;43.40;21.63;;;;;;;0.48;63.83;99729.94;4950697;29;20038;-81
2021/10/10 04:21:04;;;;;;;43.47;19.35;;;;;;;0.48;63.79;99735.34;4950533;29;20786;-81
2021/10/10 04:23:31;;;;;;;37.88;20.40;;;;;;;0.42;64.28;99718.91;4950939;29;20520;-81
2021/10/10 04:25:56;;;;;;;42.03;20.48;;;;;;;0.40;63.94;99728.25;4952631;29;20107;-81
2021/10/10 04:28:22;;;;;;;39.92;19.63;;;;;;;0.35;63.92;99730.72;4950778;29;20114;-81
2021/10/10 04:30:48;;;;;;;39.85;19.77;;;;;;;0.28;63.84;99738.78;4950251;29;20055;-81
2021/10/10 04:33:13;;;;;;;40.00;19.23;;;;;;;0.24;64.25;99735.63;4950246;28;20480;-81
2021/10/10 04:35:39;;;;;;;36.80;18.33;;;;;;;0.22;64.01;99734.97;4954134;29;20038;-81
2021/10/10 04:38:04;;;;;;;41.25;21.00;;;;;;;0.23;64.46;99735.81;4952605;29;20027;-80
2021/10/10 04:40:30;;;;;;;37.97;20.17;;;;;;;0.31;64.53;99734.84;4954221;29;20547;-82
2021/10/10 04:42:55;;;;;;;38.90;20.25;;;;;;;0.31;64.42;99732.13;4953912;29;20829;-82
2021/10/10 04:45:21;;;;;;;43.25;20.65;;;;;;;0.31;64.79;99726.75;4954849;29;20035;-82
2021/10/10 04:47:46;;;;;;;44.63;20.92;;;;;;;0.30;64.67;99725.91;4952839;29;20746;-82
2021/10/10 04:50:12;;;;;;;42.95;20.75;;;;;;;0.28;64.33;99731.50;4954472;29;20059;-82
2021/10/10 04:52:37;;;;;;;40.78;20.35;;;;;;;0.32;64.79;99736.50;4934607;29;20400;-81
2021/10/10 04:55:05;;;;;;;38.63;19.48;;;;;;;0.31;64.46;99737.53;4953853;29;20042;-81
2021/10/10 04:57:30;;;;;;;41.13;21.08;;;;;;;0.33;64.73;99741.72;4952485;29;20115;-81
2021/10/10 04:59:55;;;;;;;41.25;19.92;;;;;;;0.34;64.33;99739.84;4953471;29;20106;-81
2021/10/10 05:02:23;;;;;;;38.53;19.38;;;;;;;0.33;64.27;99735.47;4952208;29;20035;-81
2021/10/10 05:04:49;;;;;;;39.40;19.75;;;;;;;0.35;64.12;99736.09;4951452;29;20051;-80
2021/10/10 05:07:15;;;;;;;36.10;18.98;;;;;;;0.34;64.63;99734.44;4953449;29;20042;-81
2021/10/10 05:09:41;;;;;;;38.05;19.23;;;;;;;0.32;64.36;99740.06;4953609;29;20439;-81
2021/10/10 05:12:07;;;;;;;39.28;18.33;;;;;;;0.26;64.53;99741.66;4953304;29;20035;-81
2021/10/10 05:14:32;;;;;;;35.85;18.27;;;;;;;0.19;64.26;99739.94;4954184;29;20550;-81
2021/10/10 05:16:58;;;;;;;39.45;19.17;;;;;;;0.11;64.33;99736.34;4951686;29;20027;-81
2021/10/10 05:19:24;;;;;;;38.38;19.75;;;;;;;0.06;64.67;99738.81;4954103;29;20142;-80
2021/10/10 05:21:50;;;;;;;39.45;20.85;;;;;;;0.05;64.55;99733.63;4952766;29;20027;-81
2021/10/10 05:24:15;;;;;;;39.67;21.50;;;;;;;0.01;64.88;99733.16;4954274;29;20558;-81
2021/10/10 05:26:41;;;;;;;41.35;22.80;;;;;;;0.03;64.46;99732.97;4919659;29;20031;-81
2021/10/10 05:29:06;;;;;;;47.65;24.20;;;;;;;0.06;64.68;99730.72;4953801;29;20093;-81
2021/10/10 05:31:32;;;;;;;48.22;25.35;;;;;;;0.10;65.06;99732.00;4937259;29;20038;-81
2021/10/10 05:33:57;;;;;;;43.42;24.80;;;;;;;0.13;65.17;99737.00;4935817;29;20027;-81
2021/10/10 05:36:23;;;;;;;57.83;28.52;;;;;;;0.18;65.15;99731.03;4953874;29;20027;-81
2021/10/10 05:38:48;;;;;;;55.90;27.05;;;;;;;0.23;65.13;99730.44;4937103;29;20019;-81
2021/10/10 05:41:14;;;;;;;54.47;26.10;;;;;;;0.31;65.25;99737.53;4954731;29;20031;-81
2021/10/10 05:43:40;;;;;;;56.25;25.27;;;;;;;0.33;64.90;99733.63;4954832;28;20028;-81
2021/10/10 05:46:05;;;;;;;53.95;25.20;;;;;;;0.37;65.02;99734.03;4954629;29;20039;-81
2021/10/10 05:48:31;;;;;;;55.35;23.00;;;;;;;0.40;64.94;99726.41;4953797;29;20058;-81
2021/10/10 05:50:56;;;;;;;53.40;21.00;;;;;;;0.43;65.20;99730.56;4953475;29;20038;-82
2021/10/10 05:53:23;;;;;;;46.75;20.90;;;;;;;0.49;64.88;99737.03;4954154;29;20113;-82
2021/10/10 05:55:48;;;;;;;45.00;21.05;;;;;;;0.54;65.69;99730.00;4936710;29;20059;-81
2021/10/10 05:58:20;;;;;;;43.00;18.80;;;;;;;0.63;65.73;99735.22;4953283;29;20063;-82
2021/10/10 06:00:46;;;;;;;29.65;15.63;;;;;;;0.73;65.75;99731.16;4950436;29;20585;-82
2021/10/10 06:03:11;;;;;;;31.25;15.77;;;;;;;0.84;65.98;99742.41;4949565;29;20039;-82
2021/10/10 06:05:37;;;;;;;30.00;15.30;;;;;;;0.94;65.82;99744.75;4951299;29;20035;-81
2021/10/10 06:08:03;;;;;;;30.17;14.73;;;;;;;1.02;65.79;99747.25;4953503;29;20146;-81
2021/10/10 06:10:28;;;;;;;30.17;16.65;;;;;;;1.09;65.50;99742.72;4951787;29;20050;-81
2021/10/10 06:12:54;;;;;;;29.13;15.80;;;;;;;1.14;65.61;99742.94;4954235;29;20031;-81
2021/10/10 06:15:19;;;;;;;32.33;15.27;;;;;;;1.23;65.74;99737.34;4953588;29;20031;-81
2021/10/10 06:17:45;;;;;;;29.65;15.68;;;;;;;1.34;66.13;99747.59;4936539;29;20039;-81
2021/10/10 06:20:10;;;;;;;30.95;15.32;;;;;;;1.43;65.47;99746.34;4953950;29;20031;-81
2021/10/10 06:22:37;;;;;;;31.63;16.25;;;;;;;1.49;66.15;99736.59;4953639;29;20040;-82
2021/10/10 06:25:04;;;;;;;41.85;20.60;;;;;;;1.52;66.19;99733.47;4952281;29;20036;-81
2021/10/10 06:27:29;;;;;;;39.72;19.05;;;;;;;1.58;65.87;99732.66;4935671;29;20033;-81
2021/10/10 06:29:55;;;;;;;35.72;18.25;;;;;;;1.62;66.13;99724.97;4950664;29;20396;-83
2021/10/10 06:32:20;;;;;;;33.67;17.38;;;;;;;1.66;65.71;99728.91;4951555;29;20039;-81
2021/10/10 06:34:46;;;;;;;34.58;17.40;;;;;;;1.69;66.56;99727.66;4951154;29;20043;-82
2021/10/10 06:37:11;;;;;;;36.97;16.30;;;;;;;1.76;66.45;99726.66;4950893;29;20047;-82
2021/10/10 06:39:37;;;;;;;28.90;16.50;;;;;;;1.81;66.33;99723.31;4950999;29;20452;-81
2021/10/10 06:42:03;;;;;;;36.10;20.13;;;;;;;1.84;66.26;99725.59;4952436;29;20411;-82
2021/10/10 06:44:32;;;;;;;40.95;22.50;;;;;;;1.91;66.32;99725.59;4951841;29;20095;-81
2021/10/10 06:46:58;;;;;;;46.97;25.40;;;;;;;1.95;66.16;99721.44;4952816;29;20107;-83
2021/10/10 06:49:23;;;;;;;52.67;28.98;;;;;;;1.99;66.49;99724.56;4935571;29;20043;-82
2021/10/10 06:51:49;;;;;;;44.28;24.42;;;;;;;2.00;66.96;99713.53;4953429;29;20035;-83
2021/10/10 06:54:14;;;;;;;38.58;21.25;;;;;;;2.05;66.40;99727.28;4953085;29;20031;-82
2021/10/10 06:56:40;;;;;;;34.95;19.13;;;;;;;2.11;66.44;99720.19;4952949;28;20110;-81
2021/10/10 06:59:05;;;;;;;38.08;19.45;;;;;;;2.18;67.02;99725.59;4953296;29;20447;-83
2021/10/10 07:01:32;;;;;;;37.20;17.92;;;;;;;2.29;66.96;99724.94;4950235;29;20024;-82
2021/10/10 07:03:58;;;;;;;32.50;17.95;;;;;;;2.37;66.74;99723.91;4950760;29;20031;-81
2021/10/10 07:06:24;;;;;;;35.97;19.23;;;;;;;2.45;66.63;99730.97;4952069;29;20074;-81
2021/10/10 07:08:50;;;;;;;38.00;18.98;;;;;;;2.56;66.91;99721.34;4953223;29;20050;-81
2021/10/10 07:11:16;;;;;;;35.30;18.95;;;;;;;2.65;66.55;99729.03;4954427;29;20047;-81
2021/10/10 07:13:42;;;;;;;38.67;20.27;;;;;;;2.76;66.61;99722.13;4951452;29;20027;-81
2021/10/10 07:16:07;;;;;;;42.60;21.13;;;;;;;2.87;67.12;99719.78;4953040;29;20031;-81
2021/10/10 07:18:49;;;;;;;34.58;17.63;;;;;;;2.97;66.91;99721.03;4953411;29;20031;-81
2021/10/10 07:21:26;;;;;;;33.20;17.98;;;;;;;3.08;67.09;99729.50;4953644;29;20027;-81
2021/10/10 07:26:22;;;;;;;40.40;19.27;;;;;;;3.26;66.68;99726.09;4950290;29;20041;-81
2021/10/10 07:28:48;;;;;;;33.05;17.42;;;;;;;3.34;66.23;99723.13;4952309;29;20392;-81
2021/10/10 07:31:13;;;;;;;39.40;19.27;;;;;;;3.43;66.79;99721.00;4951097;29;20026;-81
2021/10/10 07:33:40;;;;;;;32.72;16.67;;;;;;;3.55;65.75;99723.84;4953210;28;20078;-81
2021/10/10 07:36:06;;;;;;;29.95;16.00;;;;;;;3.66;65.82;99731.28;4952842;29;20190;-80
2021/10/10 07:38:31;;;;;;;33.75;17.75;;;;;;;3.76;66.62;99721.78;4951460;29;20512;-78
2021/10/10 07:40:59;;;;;;;40.05;18.73;;;;;;;3.85;66.03;99732.19;4950265;29;20059;-82
2021/10/10 07:43:24;;;;;;;38.95;18.98;;;;;;;3.95;65.77;99726.25;4952636;29;20050;-82
2021/10/10 07:45:51;;;;;;;36.92;18.55;;;;;;;4.05;65.54;99733.06;4934866;29;20027;-82
2021/10/10 07:48:16;;;;;;;36.80;19.25;;;;;;;4.15;65.63;99730.66;4950503;29;20392;-83
2021/10/10 07:50:43;;;;;;;35.40;18.35;;;;;;;4.27;65.36;99728.06;4952148;29;20038;-83
2021/10/10 07:53:09;;;;;;;32.78;16.63;;;;;;;4.36;65.22;99729.44;4952742;29;20042;-82
2021/10/10 07:55:34;;;;;;;37.15;19.15;;;;;;;4.45;64.58;99732.72;4952945;29;20035;-82
2021/10/10 07:58:00;;;;;;;36.85;18.92;;;;;;;4.55;65.04;99730.28;4952235;29;20027;-82
2021/10/10 08:00:29;;;;;;;32.72;18.58;;;;;;;4.64;65.16;99728.13;4950844;29;20034;-82
2021/10/10 08:02:57;;;;;;;34.53;17.93;;;;;;;4.77;64.78;99729.84;4951259;29;20483;-82
2021/10/10 08:05:24;;;;;;;38.40;20.40;;;;;;;4.87;64.93;99727.44;4952223;29;20106;-82
2021/10/10 08:07:50;;;;;;;39.20;20.48;;;;;;;4.99;64.48;99729.38;4953513;28;20195;-82
2021/10/10 08:10:16;;;;;;;36.55;17.92;;;;;;;5.08;64.67;99730.72;4954676;29;20705;-81
2021/10/10 08:12:42;;;;;;;38.70;21.75;;;;;;;5.15;63.90;99728.75;4954359;29;20480;-82
2021/10/10 08:15:08;;;;;;;46.28;22.58;;;;;;;5.26;64.08;99720.91;4955168;29;20114;-82
2021/10/10 08:17:34;;;;;;;54.38;24.17;;;;;;;5.38;64.31;99721.75;4955535;29;20491;-82
2021/10/10 08:20:00;;;;;;;36.33;19.38;;;;;;;5.49;63.79;99714.72;4954872;29;20033;-81
2021/10/10 08:22:25;;;;;;;40.97;19.27;;;;;;;5.54;63.35;99712.09;4955422;29;20047;-83
2021/10/10 08:24:51;;;;;;;40.47;19.50;;;;;;;5.63;63.39;99716.16;4954379;29;20035;-81
2021/10/10 08:27:16;;;;;;;39.05;17.92;;;;;;;5.70;63.55;99717.94;4955175;29;20023;-81
2021/10/10 08:29:41;;;;;;;33.55;17.15;;;;;;;5.77;62.73;99716.78;4954789;29;20033;-82
2021/10/10 08:32:07;;;;;;;41.22;18.73;;;;;;;5.87;62.45;99715.38;4953309;29;20113;-83
2021/10/10 08:34:36;;;;;;;33.60;17.63;;;;;;;5.93;62.35;99711.72;4955398;29;20032;-83
2021/10/10 08:37:05;;;;;;;33.28;17.35;;;;;;;5.99;62.02;99709.94;4954431;29;20102;-81
2021/10/10 08:39:30;;;;;;;31.08;16.50;;;;;;;6.08;61.73;99703.13;4954809;29;20023;-82
2021/10/10 08:41:59;;;;;;;29.95;16.27;;;;;;;6.16;61.00;99699.22;4954578;29;20050;-82
2021/10/10 08:44:32;;;;;;;32.95;17.33;;;;;;;6.27;60.09;99692.13;4955336;29;20038;-83
2021/10/10 08:47:02;;;;;;;29.95;13.93;;;;;;;6.42;60.49;99692.47;4954227;29;20098;-82
2021/10/10 08:49:31;;;;;;;30.63;15.60;;;;;;;6.62;60.72;99694.78;4954934;29;20057;-82
2021/10/10 08:52:01;;;;;;;30.50;16.48;;;;;;;6.83;60.75;99685.16;4953878;29;20024;-83
2021/10/10 08:54:27;;;;;;;34.03;16.83;;;;;;;7.02;60.58;99686.88;4937978;29;20031;-83
2021/10/10 08:56:53;;;;;;;31.15;15.82;;;;;;;7.11;59.26;99694.47;4953133;29;20039;-84
2021/10/10 08:59:21;;;;;;;35.90;17.75;;;;;;;7.22;59.37;99689.19;4952562;29;20108;-80
2021/10/10 09:01:48;;;;;;;43.45;18.13;;;;;;;7.29;59.17;99690.69;4954219;29;20133;-80
2021/10/10 09:04:13;;;;;;;32.22;17.63;;;;;;;7.36;59.33;99697.88;4952858;29;20034;-79
2021/10/10 09:06:43;;;;;;;37.03;17.33;;;;;;;7.48;58.80;99684.22;4936891;29;20388;-81
2021/10/10 09:09:36;;;;;;;35.53;16.93;;;;;;;7.65;58.69;99682.31;4953464;29;20031;-81
2021/10/10 09:12:09;;;;;;;33.53;18.15;;;;;;;7.81;58.66;99677.13;4950239;29;20035;-80
2021/10/10 09:15:06;;;;;;;70.65;41.25;;;;;;;8.03;58.55;99678.00;4954739;29;20030;-81
2021/10/10 09:17:31;;;;;;;52.88;28.08;;;;;;;8.30;57.17;99677.34;4953588;29;20035;-82
2021/10/10 09:20:01;;;;;;;43.53;24.52;;;;;;;8.56;58.05;99674.97;4951309;29;20499;-81
2021/10/10 09:22:27;;;;;;;40.83;24.00;;;;;;;8.82;57.81;99672.56;4937069;29;20113;-81
2021/10/10 09:25:09;;;;;;;37.40;18.65;;;;;;;8.97;57.51;99674.66;4954205;29;20034;-81
2021/10/10 09:27:34;;;;;;;52.10;35.42;;;;;;;9.05;55.75;99685.16;4954381;29;20471;-82
2021/10/10 09:30:04;;;;;;;37.97;21.90;;;;;;;9.00;53.68;99670.59;4954135;29;20027;-81
2021/10/10 09:32:31;;;;;;;42.05;26.50;;;;;;;8.86;53.46;99673.72;4954043;29;20031;-81
2021/10/10 09:34:57;;;;;;;53.50;34.75;;;;;;;8.78;53.96;99676.88;4954069;29;20614;-82
2021/10/10 09:37:33;;;;;;;31.90;16.48;;;;;;;8.80;53.78;99674.72;4955013;29;20031;-82
2021/10/10 09:42:37;;;;;;;38.20;21.58;;;;;;;8.89;53.05;99661.44;4954534;29;20117;-81
2021/10/10 09:45:14;;;;;;;81.32;32.92;;;;;;;8.98;52.34;99668.09;4954195;29;20030;-81
2021/10/10 09:47:54;;;;;;;85.57;34.67;;;;;;;9.08;53.68;99668.22;4953854;29;20039;-80
2021/10/10 09:50:20;;;;;;;66.53;27.05;;;;;;;9.19;52.37;99663.69;4953614;29;20386;-81
2021/10/10 09:52:45;;;;;;;33.08;15.73;;;;;;;9.33;51.87;99664.13;4936036;29;20664;-82
2021/10/10 09:55:12;;;;;;;81.25;28.58;;;;;;;9.40;50.63;99652.94;4936334;29;20047;-82
2021/10/10 09:57:47;;;;;;;56.47;23.38;;;;;;;9.51;51.74;99645.66;4952856;29;20038;-82
2021/10/10 10:00:23;;;;;;;43.47;19.83;;;;;;;9.66;50.79;99655.91;4953436;29;20042;-80
2021/10/10 10:02:50;;;;;;;25.35;13.23;;;;;;;9.71;48.84;99649.66;4953141;29;20118;-81
2021/10/10 10:05:30;;;;;;;24.40;12.57;;;;;;;9.73;48.64;99644.75;4953472;29;20039;-79
2021/10/10 10:07:56;;;;;;;;;;;;;;;9.74;48.19;99635.44;4953969;29;20057;-79
2021/10/10 10:10:25;;;;;;;25.10;11.75;;;;;;;9.79;48.51;99638.22;4934732;29;20371;-80
2021/10/10 10:12:53;;;;;;;26.55;12.68;;;;;;;9.87;49.78;99642.41;4934402;29;20031;-80
2021/10/10 10:15:24;;;;;;;67.05;19.38;;;;;;;10.00;49.19;99635.63;4951851;29;20089;-81
2021/10/10 10:17:51;;;;;;;73.45;21.08;;;;;;;10.16;48.63;99634.66;4951407;29;20394;-84
2021/10/10 10:20:18;;;;;;;22.83;12.23;;;;;;;10.27;47.10;99632.78;4952535;29;20078;-85
2021/10/10 10:22:44;;;;;;;26.77;11.60;;;;;;;10.30;45.91;99628.69;4951300;29;20035;-82
2021/10/10 10:25:10;;;;;;;49.75;18.02;;;;;;;10.34;46.90;99630.66;4950842;29;20086;-77
2021/10/10 10:27:36;;;;;;;48.60;17.05;;;;;;;10.40;46.61;99631.53;4950872;29;20365;-76
2021/10/10 10:30:04;;;;;;;33.13;13.60;;;;;;;10.48;46.05;99625.53;4950539;28;20470;-77
2021/10/10 10:32:32;;;;;;;26.02;11.70;;;;;;;10.60;47.22;99625.31;4950583;29;20030;-77
2021/10/10 10:35:11;;;;;;;19.92;10.57;;;;;;;10.70;45.98;99616.28;4951035;29;20090;-79
2021/10/10 10:37:46;;;;;;;20.83;11.45;;;;;;;10.79;46.71;99617.44;4948548;29;20062;-78
2021/10/10 10:40:14;;;;;;;18.48;11.55;;;;;;;10.90;47.08;99623.75;4950846;29;20031;-78
2021/10/10 10:42:41;;;;;;;22.90;12.00;;;;;;;11.00;47.08;99615.56;4951411;29;20054;-76
2021/10/10 10:45:25;;;;;;;19.35;10.75;;;;;;;11.01;44.90;99610.88;4948524;29;20031;-76
2021/10/10 10:47:53;;;;;;;21.73;10.85;;;;;;;11.05;45.85;99616.69;4949933;29;20037;-73
2021/10/10 10:50:27;;;;;;;19.33;11.02;;;;;;;11.06;46.02;99618.31;4948947;29;20078;-72
2021/10/10 10:53:15;;;;;;;25.48;12.07;;;;;;;11.07;46.87;99618.03;4951875;29;20031;-72
2021/10/10 10:55:43;;;;;;;21.42;11.20;;;;;;;11.13;45.30;99614.22;4934192;29;20038;-72
2021/10/10 10:58:13;;;;;;;20.00;10.70;;;;;;;11.10;44.63;99611.19;4933751;29;20503;-73
2021/10/10 11:00:47;;;;;;;22.00;10.88;;;;;;;11.09;45.65;99615.03;4949912;29;20388;-71
2021/10/10 11:03:21;;;;;;;23.00;11.20;;;;;;;11.06;43.50;99613.66;4945964;29;20114;-74
2021/10/10 11:05:50;;;;;;;24.27;11.15;;;;;;;11.03;43.52;99605.94;4950408;29;20095;-74
2021/10/10 11:08:16;;;;;;;23.60;11.57;;;;;;;11.10;43.85;99613.94;4948096;29;20102;-73
2021/10/10 11:11:04;;;;;;;20.33;11.10;;;;;;;11.21;42.99;99612.84;4949811;29;20500;-74
2021/10/10 11:13:38;;;;;;;21.75;12.90;;;;;;;11.41;44.19;99614.00;4949452;29;20063;-73
2021/10/10 11:16:14;;;;;;;24.30;13.90;;;;;;;11.62;44.42;99604.63;4950678;29;20089;-73
2021/10/10 11:18:52;;;;;;;22.05;13.02;;;;;;;11.79;44.47;99600.00;4950722;29;20035;-73
2021/10/10 11:21:20;;;;;;;18.50;11.15;;;;;;;11.86;44.07;99601.34;4950337;29;20105;-73
2021/10/10 11:23:56;;;;;;;20.80;11.20;;;;;;;11.83;42.68;99598.31;4933813;29;20102;-73
2021/10/10 11:26:23;;;;;;;24.25;12.98;;;;;;;11.80;41.92;99593.38;4950903;29;20503;-72
2021/10/10 11:28:50;;;;;;;19.92;11.50;;;;;;;11.77;41.90;99597.50;4948732;29;20031;-74
2021/10/10 11:31:22;;;;;;;18.83;10.82;;;;;;;11.77;42.60;99581.84;4950036;29;20440;-72